Time;durP1;ratioP1;P1;durP2;ratioP2;P2;SDS_P1;SDS_P2;PMS_P1;PMS_P2;Temp;Humidity;BMP_temperature;BMP_pressure;BME280_temperature;BME280_humidity;BME280_pressure;Samples;Min_cycle;Max_cycle;Signal;HPM_P1;HPM_P2
2023/01/15 00:04:29;;;;;;;2.50;1.50;;;22.30;55.30;;;;;;221887;1268;22656;-48
2023/01/15 00:09:33;;;;;;;4.10;1.60;;;22.30;54.80;;;;;;222296;1260;23653;-47
2023/01/15 00:14:37;;;;;;;3.80;1.50;;;22.30;55.00;;;;;;221899;1259;22609;-50
2023/01/15 00:19:41;;;;;;;1.80;1.50;;;22.40;54.70;;;;;;221391;1267;22535;-48
2023/01/15 00:30:12;;;;;;;1.60;1.40;;;22.40;54.40;;;;;;228008;1263;22715;-49
2023/01/15 00:35:22;;;;;;;2.00;1.60;;;22.60;53.90;;;;;;221975;1270;26444;-48
2023/01/15 00:40:26;;;;;;;5.30;1.80;;;22.60;54.10;;;;;;221709;1267;22528;-49
2023/01/15 00:45:30;;;;;;;3.80;1.70;;;22.60;54.10;;;;;;222013;1269;22540;-50
2023/01/15 00:50:34;;;;;;;1.70;1.60;;;22.60;53.90;;;;;;222040;1256;22602;-49
2023/01/15 00:55:38;;;;;;;1.20;1.10;;;22.60;53.90;;;;;;222022;1263;22557;-48
2023/01/15 01:00:43;;;;;;;2.50;1.50;;;22.60;54.30;;;;;;221830;1247;22623;-49
2023/01/15 01:05:47;;;;;;;1.60;1.50;;;22.60;53.90;;;;;;221931;1270;25284;-49
2023/01/15 01:11:08;;;;;;;1.50;1.40;;;22.70;54.00;;;;;;221739;1259;23950;-50
2023/01/15 01:16:29;;;;;;;2.70;1.50;;;22.80;53.60;;;;;;221837;1268;26631;-47
2023/01/15 01:21:34;;;;;;;3.60;1.30;;;22.80;53.30;;;;;;229664;1266;22183;-49
2023/01/15 01:26:38;;;;;;;1.10;1.00;;;23.00;53.40;;;;;;227557;1263;25323;-50
2023/01/15 01:31:42;;;;;;;2.70;1.10;;;23.10;52.80;;;;;;226593;1260;22650;-51
2023/01/15 01:36:46;;;;;;;3.00;1.40;;;23.10;52.80;;;;;;223757;1260;25419;-48
2023/01/15 01:41:50;;;;;;;1.10;1.10;;;23.10;53.00;;;;;;221925;1261;22587;-51
2023/01/15 01:46:54;;;;;;;1.70;1.10;;;23.10;53.20;;;;;;222029;1257;22604;-47
2023/01/15 01:52:06;;;;;;;1.20;1.20;;;23.10;53.60;;;;;;221698;1264;22625;-49
2023/01/15 01:57:10;;;;;;;1.30;1.20;;;23.00;53.20;;;;;;221918;1271;22779;-51
2023/01/15 02:02:18;;;;;;;1.30;1.20;;;23.20;53.60;;;;;;221729;1266;24219;-49
2023/01/15 02:07:23;;;;;;;1.30;1.20;;;23.10;53.00;;;;;;221840;1256;22538;-49
2023/01/15 02:12:33;;;;;;;1.40;1.10;;;23.20;53.30;;;;;;221734;1271;170093;-48
2023/01/15 02:17:37;;;;;;;1.90;1.20;;;23.20;53.00;;;;;;221915;1267;25444;-49
2023/01/15 02:23:06;;;;;;;1.10;0.90;;;23.20;53.00;;;;;;221725;1270;22552;-47
2023/01/15 02:28:21;;;;;;;2.20;1.40;;;23.30;52.90;;;;;;222694;1255;22580;-51
2023/01/15 02:33:37;;;;;;;1.80;1.30;;;23.30;52.80;;;;;;221661;1271;24531;-48
2023/01/15 02:38:47;;;;;;;1.70;1.30;;;23.30;52.80;;;;;;221845;1266;22527;-49
2023/01/15 02:43:56;;;;;;;1.00;0.90;;;23.40;53.20;;;;;;221929;1263;22520;-47
2023/01/15 02:49:04;;;;;;;1.80;1.30;;;23.40;52.70;;;;;;221815;1262;22601;-49
2023/01/15 02:54:13;;;;;;;1.80;1.00;;;23.50;52.70;;;;;;222114;1256;22543;-51
2023/01/15 02:59:26;;;;;;;1.30;0.90;;;23.40;53.00;;;;;;222086;1257;22775;-48
2023/01/15 03:04:39;;;;;;;;;;;23.50;52.60;;;;;;221816;1267;22515;-52
2023/01/15 03:09:44;;;;;;;0.80;0.80;;;23.50;52.90;;;;;;221697;1263;22534;-47
2023/01/15 03:15:05;;;;;;;1.40;1.10;;;23.50;53.00;;;;;;221736;1269;25358;-47
2023/01/15 03:20:19;;;;;;;1.00;1.00;;;23.60;52.90;;;;;;221756;1266;26155;-50
2023/01/15 03:25:28;;;;;;;1.10;1.00;;;23.60;52.40;;;;;;221824;1257;25421;-51
2023/01/15 03:30:33;;;;;;;1.30;1.20;;;23.60;52.50;;;;;;221527;1260;22524;-51
2023/01/15 03:35:57;;;;;;;1.80;0.90;;;23.70;52.40;;;;;;229881;1264;22154;-52
2023/01/15 03:41:27;;;;;;;2.50;1.00;;;23.80;52.10;;;;;;228497;1263;27733;-48
2023/01/15 03:46:57;;;;;;;1.00;1.00;;;24.00;51.70;;;;;;222322;1269;22520;-48
2023/01/15 03:52:33;;;;;;;1.30;0.90;;;23.90;51.80;;;;;;221859;1264;22538;-47
2023/01/15 03:57:59;;;;;;;2.10;0.80;;;23.80;52.00;;;;;;221841;1259;22534;-49
2023/01/15 04:03:09;;;;;;;1.00;0.90;;;23.80;52.10;;;;;;221708;1270;23874;-49
2023/01/15 04:08:14;;;;;;;0.80;0.80;;;23.90;52.10;;;;;;221970;1270;22530;-49
2023/01/15 04:13:23;;;;;;;1.20;1.10;;;23.90;52.40;;;;;;221819;1257;22768;-50
2023/01/15 04:18:28;;;;;;;1.00;0.90;;;23.90;52.10;;;;;;221890;1264;22543;-50
2023/01/15 04:23:33;;;;;;;6.60;1.20;;;23.90;52.80;;;;;;221962;1269;26529;-48
2023/01/15 04:28:37;;;;;;;4.60;1.10;;;23.90;52.70;;;;;;221788;1255;25425;-51
2023/01/15 04:33:41;;;;;;;3.80;1.00;;;23.90;52.80;;;;;;222086;1264;23053;-47
2023/01/15 04:38:45;;;;;;;2.80;1.00;;;23.90;52.60;;;;;;222889;1261;24264;-51
2023/01/15 04:44:07;;;;;;;4.00;1.00;;;24.00;52.50;;;;;;221836;1253;24220;-51
2023/01/15 04:49:15;;;;;;;2.50;0.70;;;23.90;52.70;;;;;;221672;1259;22532;-48
2023/01/15 04:54:21;;;;;;;0.80;0.80;;;23.90;53.00;;;;;;229693;1268;22125;-46
2023/01/15 04:59:26;;;;;;;1.80;0.90;;;24.10;52.50;;;;;;225437;1270;24725;-48
2023/01/15 05:04:30;;;;;;;1.30;0.70;;;24.20;52.00;;;;;;229604;1267;22362;-51
2023/01/15 05:09:35;;;;;;;0.90;0.80;;;24.30;51.90;;;;;;224682;1266;22744;-51
2023/01/15 05:14:39;;;;;;;2.00;0.90;;;24.30;52.00;;;;;;226311;1264;22538;-50
2023/01/15 05:19:43;;;;;;;1.60;0.70;;;24.30;52.30;;;;;;229906;1264;22143;-51
2023/01/15 05:24:47;;;;;;;1.20;0.70;;;24.30;51.80;;;;;;222380;1270;23899;-51
2023/01/15 05:29:51;;;;;;;0.70;0.60;;;24.30;51.70;;;;;;221868;1263;22663;-50
2023/01/15 05:34:56;;;;;;;23.90;3.10;;;24.20;52.10;;;;;;222048;1247;22730;-47
2023/01/15 05:40:00;;;;;;;1.80;0.70;;;24.20;52.30;;;;;;221880;1257;23903;-51
2023/01/15 05:45:05;;;;;;;0.70;0.70;;;24.20;52.40;;;;;;221739;1267;22547;-52
2023/01/15 05:50:10;;;;;;;0.70;0.70;;;24.20;52.50;;;;;;228993;1266;22541;-51
2023/01/15 05:55:14;;;;;;;1.80;0.80;;;24.30;52.40;;;;;;222096;1249;24331;-49
2023/01/15 06:00:19;;;;;;;1.00;0.90;;;24.30;52.10;;;;;;221730;1260;22536;-50
2023/01/15 06:05:22;;;;;;;0.90;0.70;;;24.20;52.80;;;;;;221775;1270;22981;-54
2023/01/15 06:10:27;;;;;;;0.70;0.60;;;23.90;53.10;;;;;;221773;1271;22541;-51
2023/01/15 06:15:31;;;;;;;0.80;0.80;;;23.80;53.30;;;;;;221951;1258;24216;-52
2023/01/15 06:20:36;;;;;;;0.60;0.50;;;23.70;53.70;;;;;;221682;1264;22540;-51
2023/01/15 06:25:41;;;;;;;0.70;0.60;;;23.50;54.10;;;;;;222008;1256;24532;-48
2023/01/15 06:30:45;;;;;;;1.50;0.50;;;23.30;54.60;;;;;;222158;1270;23863;-50
2023/01/15 06:35:49;;;;;;;1.00;0.80;;;23.20;55.00;;;;;;221793;1257;22637;-51
2023/01/15 06:40:53;;;;;;;1.00;0.70;;;23.10;55.40;;;;;;221913;1271;22532;-50
2023/01/15 06:51:20;;;;;;;2.80;1.20;;;23.00;55.30;;;;;;221934;1270;22620;-51
2023/01/15 06:56:24;;;;;;;0.50;0.50;;;22.90;55.40;;;;;;221779;1257;22601;-52
2023/01/15 07:01:30;;;;;;;0.50;0.50;;;22.80;56.10;;;;;;221621;1267;22521;-49
2023/01/15 07:06:34;;;;;;;0.50;0.50;;;22.70;55.90;;;;;;221650;1259;24603;-50
2023/01/15 07:11:48;;;;;;;0.60;0.60;;;22.60;56.30;;;;;;221743;1269;22532;-52
2023/01/15 07:16:52;;;;;;;3.60;0.80;;;22.50;56.40;;;;;;221712;1270;23912;-52
2023/01/15 07:21:56;;;;;;;1.20;0.70;;;22.50;56.40;;;;;;221771;1260;22624;-51
2023/01/15 07:27:01;;;;;;;0.50;0.50;;;22.40;57.00;;;;;;221675;1249;22639;-50
2023/01/15 07:32:05;;;;;;;0.70;0.70;;;22.30;56.70;;;;;;221941;1266;22544;-50
2023/01/15 07:37:10;;;;;;;1.70;0.70;;;22.30;56.70;;;;;;222042;1269;24388;-49
2023/01/15 07:53:03;;;;;;;1.00;0.70;;;22.10;56.80;;;;;;221610;1260;22529;-49
2023/01/15 07:58:07;;;;;;;0.60;0.50;;;22.00;56.80;;;;;;221808;1270;24419;-49
2023/01/15 08:03:11;;;;;;;0.60;0.60;;;22.30;56.70;;;;;;222103;1268;23849;-46
2023/01/15 08:08:18;;;;;;;0.90;0.50;;;22.60;55.90;;;;;;221856;1270;22626;-50
2023/01/15 08:18:45;;;;;;;7.20;1.00;;;22.90;54.80;;;;;;221911;1270;23202;-50
2023/01/15 08:23:49;;;;;;;1.30;0.80;;;23.10;54.40;;;;;;221849;1264;24292;-46
2023/01/15 08:28:54;;;;;;;3.50;1.00;;;23.10;54.20;;;;;;221806;1263;25551;-51
2023/01/15 08:33:58;;;;;;;3.40;0.80;;;23.20;54.00;;;;;;221814;1250;24209;-52
2023/01/15 08:39:02;;;;;;;3.00;0.70;;;23.20;53.90;;;;;;221845;1266;24209;-49
2023/01/15 08:44:06;;;;;;;4.60;0.80;;;23.30;53.80;;;;;;221966;1269;22579;-50
2023/01/15 08:49:10;;;;;;;4.30;0.90;;;23.30;54.00;;;;;;222034;1266;22663;-49
2023/01/15 08:54:15;;;;;;;11.60;1.10;;;23.40;53.50;;;;;;221849;1269;22640;-51
2023/01/15 08:59:20;;;;;;;8.00;1.00;;;23.40;53.40;;;;;;222135;1263;22537;-51
2023/01/15 09:04:24;;;;;;;5.50;1.10;;;23.50;53.40;;;;;;221692;1266;24256;-51
2023/01/15 09:09:28;;;;;;;5.60;1.40;;;23.50;53.50;;;;;;221774;1269;22570;-49
2023/01/15 09:14:32;;;;;;;2.60;0.90;;;23.50;53.30;;;;;;221479;1263;24255;-52
2023/01/15 09:19:58;;;;;;;3.50;1.30;;;23.50;53.30;;;;;;221592;1269;25132;-52
2023/01/15 09:25:03;;;;;;;8.10;1.40;;;23.50;53.40;;;;;;221673;1271;23668;-50
2023/01/15 09:30:13;;;;;;;0.90;0.60;;;23.50;53.30;;;;;;221441;1261;25424;-51
2023/01/15 09:35:17;;;;;;;1.20;0.90;;;23.60;53.10;;;;;;222055;1251;22766;-47
2023/01/15 09:40:46;;;;;;;4.50;1.00;;;23.90;52.90;;;;;;221589;1267;27216;-51
2023/01/15 09:45:58;;;;;;;2.50;0.90;;;24.10;52.50;;;;;;221756;1265;25948;-52
2023/01/15 09:51:31;;;;;;;6.00;0.80;;;24.30;52.60;;;;;;221399;1267;22713;-51
2023/01/15 09:56:36;;;;;;;6.80;1.10;;;24.30;53.00;;;;;;221695;1264;25380;-51
2023/01/15 10:01:41;;;;;;;5.50;1.00;;;24.30;52.60;;;;;;221420;1263;22530;-52
2023/01/15 10:07:02;;;;;;;1.50;0.90;;;24.20;52.90;;;;;;221344;1267;23873;-53
2023/01/15 10:12:34;;;;;;;4.30;0.90;;;24.00;52.90;;;;;;221662;1269;23092;-50
2023/01/15 10:17:41;;;;;;;3.50;1.20;;;23.90;53.30;;;;;;221619;1266;26720;-52
2023/01/15 10:23:13;;;;;;;3.70;1.20;;;23.80;53.60;;;;;;221544;1264;24218;-52
2023/01/15 10:28:25;;;;;;;7.40;1.00;;;23.70;53.90;;;;;;221698;1269;25611;-50
2023/01/15 10:33:29;;;;;;;1.90;1.10;;;23.60;54.40;;;;;;221674;1271;22682;-51
2023/01/15 10:39:10;;;;;;;3.70;1.20;;;23.60;54.80;;;;;;221565;1265;25344;-52
2023/01/15 10:44:22;;;;;;;1.50;1.00;;;23.40;54.30;;;;;;221346;1271;22640;-51
2023/01/15 10:49:30;;;;;;;1.80;1.00;;;23.40;54.50;;;;;;221683;1264;26351;-53
2023/01/15 10:54:46;;;;;;;7.90;1.40;;;23.20;54.60;;;;;;221596;1251;22533;-51
2023/01/15 10:59:57;;;;;;;3.40;1.30;;;23.10;54.70;;;;;;221249;1260;22550;-53
2023/01/15 11:05:02;;;;;;;3.40;1.70;;;23.10;54.70;;;;;;221268;1264;23955;-49
2023/01/15 11:10:14;;;;;;;1.80;1.40;;;22.90;54.60;;;;;;221386;1248;24270;-51
2023/01/15 11:20:49;;;;;;;4.30;1.10;;;22.90;54.70;;;;;;221516;1250;22531;-49
2023/01/15 11:25:59;;;;;;;2.30;1.40;;;22.80;54.70;;;;;;221582;1256;22642;-52
2023/01/15 11:31:03;;;;;;;3.50;1.20;;;22.70;54.70;;;;;;221488;1256;23870;-51
2023/01/15 11:36:20;;;;;;;4.90;1.60;;;22.60;54.80;;;;;;221519;1267;22570;-52
2023/01/15 11:50:42;;;;;;;5.20;1.40;;;22.60;54.80;;;;;;221526;1270;25334;-50
2023/01/15 11:52:21;;;;;;;13.70;1.60;;;22.60;54.80;;;;;;221761;1260;24053;-55
2023/01/15 11:57:30;;;;;;;7.00;1.20;;;22.50;55.50;;;;;;221728;1258;22601;-56
2023/01/15 12:02:48;;;;;;;3.70;1.40;;;22.50;55.30;;;;;;221789;1260;22747;-56
2023/01/15 12:07:56;;;;;;;6.10;1.50;;;22.40;55.10;;;;;;221941;1270;25599;-55
2023/01/15 12:13:19;;;;;;;4.20;1.60;;;22.40;55.30;;;;;;221774;1263;22640;-57
2023/01/15 12:18:45;;;;;;;2.00;1.60;;;22.30;55.40;;;;;;221827;1267;22650;-55
2023/01/15 12:23:53;;;;;;;20.00;2.90;;;22.30;56.00;;;;;;221428;1247;22550;-51
2023/01/15 12:29:03;;;;;;;5.40;1.90;;;22.10;56.40;;;;;;221662;1251;22666;-55
2023/01/15 12:34:22;;;;;;;5.60;1.70;;;22.20;56.40;;;;;;221648;1263;22554;-52
2023/01/15 12:39:29;;;;;;;9.60;1.80;;;22.10;56.30;;;;;;221923;1248;26116;-52
2023/01/15 12:45:03;;;;;;;5.20;1.80;;;22.00;56.10;;;;;;224311;1271;24344;-52
2023/01/15 12:50:43;;;;;;;6.90;1.70;;;22.10;56.00;;;;;;221725;1267;25411;-50
2023/01/15 12:56:25;;;;;;;4.60;1.50;;;22.00;55.90;;;;;;221666;1267;22640;-52
2023/01/15 13:02:08;;;;;;;4.20;1.50;;;22.20;55.40;;;;;;221934;1267;22528;-53
2023/01/15 13:07:32;;;;;;;2.20;1.60;;;22.80;54.30;;;;;;221639;1257;23338;-52
2023/01/15 13:12:36;;;;;;;7.80;1.70;;;23.10;53.40;;;;;;221600;1253;23923;-49
2023/01/15 13:18:21;;;;;;;9.70;1.80;;;23.30;53.10;;;;;;222055;1261;24384;-46
2023/01/15 13:23:34;;;;;;;4.60;1.60;;;23.30;52.60;;;;;;221550;1263;25337;-53
2023/01/15 13:28:53;;;;;;;9.20;1.70;;;23.40;52.40;;;;;;221522;1264;22548;-52
2023/01/15 13:34:05;;;;;;;9.00;1.80;;;23.40;52.40;;;;;;221811;1263;25567;-53
2023/01/15 13:39:23;;;;;;;8.60;1.60;;;23.50;52.30;;;;;;221752;1263;25902;-56
2023/01/15 13:44:33;;;;;;;4.60;1.50;;;23.60;52.10;;;;;;221685;1256;23813;-57
2023/01/15 13:49:45;;;;;;;1.80;1.50;;;23.70;51.70;;;;;;221849;1264;22735;-49
2023/01/15 13:54:50;;;;;;;2.70;1.70;;;23.80;51.90;;;;;;221698;1257;22545;-48
2023/01/15 13:59:55;;;;;;;6.60;2.00;;;23.80;51.40;;;;;;221807;1263;22775;-51
2023/01/15 14:05:20;;;;;;;2.50;1.30;;;23.80;51.30;;;;;;221714;1264;22529;-52
2023/01/15 14:10:32;;;;;;;5.20;1.50;;;23.90;51.00;;;;;;221955;1263;204526;-55
2023/01/15 14:15:44;;;;;;;;;;;23.90;51.30;;;;;;221835;1262;22505;-54
2023/01/15 14:21:08;;;;;;;24.10;19.80;;;24.10;52.40;;;;;;221871;1263;25430;-53
2023/01/15 14:26:38;;;;;;;22.90;17.40;;;24.00;54.10;;;;;;221921;1253;22525;-54
2023/01/15 14:32:25;;;;;;;21.40;17.10;;;24.00;54.20;;;;;;221950;1264;25268;-54
2023/01/15 14:37:52;;;;;;;18.30;15.40;;;23.90;54.70;;;;;;221966;1264;23879;-54
2023/01/15 14:43:03;;;;;;;18.10;14.00;;;23.70;54.50;;;;;;221700;1263;22562;-54
2023/01/15 14:48:29;;;;;;;15.50;11.90;;;23.50;53.90;;;;;;221793;1264;23145;-54
2023/01/15 14:54:00;;;;;;;15.00;11.90;;;23.50;53.80;;;;;;221815;1263;24364;-55
2023/01/15 14:59:11;;;;;;;15.30;11.20;;;23.40;54.20;;;;;;221580;1263;25651;-54
2023/01/15 15:04:42;;;;;;;14.20;10.60;;;23.40;54.20;;;;;;221615;1264;22776;-52
2023/01/15 15:09:50;;;;;;;14.90;10.20;;;23.30;54.40;;;;;;221568;1262;25180;-55
2023/01/15 15:15:13;;;;;;;10.50;9.00;;;23.10;54.60;;;;;;221669;1263;22633;-57
2023/01/15 15:20:48;;;;;;;9.50;8.30;;;23.10;54.60;;;;;;221721;1264;25443;-56
2023/01/15 15:26:02;;;;;;;10.70;8.50;;;23.00;54.70;;;;;;221688;1263;24223;-56
2023/01/15 15:31:09;;;;;;;9.90;8.00;;;22.90;54.90;;;;;;221679;1257;25081;-51
2023/01/15 15:36:14;;;;;;;9.10;6.60;;;22.90;54.70;;;;;;221683;1263;23116;-52
2023/01/15 15:48:40;;;;;;;11.80;7.60;;;22.80;54.90;;;;;;221957;1256;25451;-54
2023/01/15 15:52:22;;;;;;;8.00;6.30;;;22.70;55.00;;;;;;220778;1262;22548;-54
2023/01/15 15:57:29;;;;;;;8.30;5.70;;;22.60;55.40;;;;;;220933;1274;24432;-54
2023/01/15 16:02:40;;;;;;;7.80;6.20;;;22.60;54.90;;;;;;221075;1270;24043;-56
2023/01/15 16:07:46;;;;;;;5.90;5.30;;;22.60;55.00;;;;;;221621;1264;22652;-57
2023/01/15 16:12:58;;;;;;;5.70;5.10;;;22.50;55.40;;;;;;221342;1262;24372;-53
2023/01/15 16:18:05;;;;;;;5.20;4.70;;;22.50;55.10;;;;;;221586;1269;25252;-53
2023/01/15 16:23:25;;;;;;;6.60;5.20;;;22.40;55.40;;;;;;221790;1264;22551;-55
2023/01/15 16:28:55;;;;;;;6.40;4.70;;;22.40;54.80;;;;;;221516;1264;25425;-55
2023/01/15 16:34:02;;;;;;;4.70;4.30;;;22.30;55.30;;;;;;221528;1269;24210;-53
2023/01/15 16:39:22;;;;;;;5.10;4.40;;;22.20;55.30;;;;;;221383;1260;22657;-52
2023/01/15 16:44:52;;;;;;;3.90;3.60;;;22.20;55.20;;;;;;221497;1257;23010;-53
2023/01/15 16:50:25;;;;;;;4.40;4.00;;;22.10;55.40;;;;;;221904;1260;24293;-54
2023/01/15 16:55:33;;;;;;;4.70;3.30;;;22.20;54.90;;;;;;221562;1264;24342;-60
2023/01/15 17:00:46;;;;;;;3.80;3.50;;;22.10;54.80;;;;;;221853;1249;23974;-54
2023/01/15 17:06:19;;;;;;;4.20;3.80;;;22.10;55.00;;;;;;221531;1264;23113;-51
2023/01/15 17:11:32;;;;;;;4.20;3.60;;;22.00;55.00;;;;;;221517;1264;22649;-55
2023/01/15 17:16:37;;;;;;;4.90;4.00;;;22.00;55.10;;;;;;221347;1261;24285;-57
2023/01/15 17:21:46;;;;;;;4.90;3.50;;;22.10;55.10;;;;;;221438;1256;23908;-57
2023/01/15 17:26:52;;;;;;;6.60;3.20;;;22.00;55.00;;;;;;221444;1271;24233;-58
2023/01/15 17:32:03;;;;;;;4.20;3.20;;;22.00;54.70;;;;;;221593;1256;25682;-57
2023/01/15 17:37:10;;;;;;;3.50;3.20;;;22.10;54.80;;;;;;221642;1270;22523;-56
2023/01/15 17:42:19;;;;;;;3.50;3.20;;;22.50;53.50;;;;;;221595;1271;25367;-53
2023/01/15 17:47:27;;;;;;;3.50;3.20;;;22.90;52.80;;;;;;221683;1256;22613;-52
2023/01/15 17:52:36;;;;;;;8.00;3.50;;;23.00;52.30;;;;;;222495;1269;25579;-53
2023/01/15 18:08:54;;;;;;;4.20;3.80;;;23.40;51.50;;;;;;221567;1270;22752;-57
2023/01/15 18:14:03;;;;;;;7.20;3.40;;;23.40;51.40;;;;;;221603;1263;24279;-53
2023/01/15 18:19:10;;;;;;;5.00;3.30;;;23.40;51.60;;;;;;222118;1266;25419;-56
2023/01/15 18:24:20;;;;;;;8.50;3.60;;;23.30;52.30;;;;;;221524;1263;24035;-56
2023/01/15 18:29:27;;;;;;;5.40;3.40;;;23.20;53.20;;;;;;221573;1267;22717;-53
2023/01/15 18:34:34;;;;;;;12.20;4.00;;;23.20;53.50;;;;;;221645;1256;24745;-56
2023/01/15 18:39:40;;;;;;;8.80;3.60;;;23.40;53.70;;;;;;221551;1263;25141;-56
2023/01/15 18:50:11;;;;;;;13.60;4.00;;;23.50;52.50;;;;;;222060;1263;22718;-51
2023/01/15 18:55:27;;;;;;;6.60;3.90;;;23.50;53.70;;;;;;221816;1263;25440;-49
2023/01/15 19:00:34;;;;;;;7.10;3.80;;;23.40;53.20;;;;;;221801;1267;24212;-48
2023/01/15 19:05:40;;;;;;;8.40;3.80;;;23.30;53.40;;;;;;221778;1271;23246;-51
2023/01/15 19:10:51;;;;;;;5.30;4.20;;;23.20;53.40;;;;;;221645;1263;24218;-53
2023/01/15 19:21:23;;;;;;;8.90;4.10;;;23.20;53.30;;;;;;221819;1263;23206;-54
2023/01/15 19:26:33;;;;;;;4.50;4.00;;;23.10;53.20;;;;;;220662;1276;22544;-56
2023/01/15 19:31:40;;;;;;;4.70;4.30;;;23.00;53.50;;;;;;220565;1278;22739;-54
2023/01/15 19:36:50;;;;;;;6.30;4.00;;;23.00;53.40;;;;;;220680;1278;24219;-53
2023/01/15 19:53:01;;;;;;;4.60;4.10;;;22.70;53.50;;;;;;221841;1260;22616;-54
2023/01/15 19:58:09;;;;;;;5.70;4.30;;;22.60;53.80;;;;;;221901;1270;22530;-57
2023/01/15 20:03:16;;;;;;;6.50;4.70;;;22.50;53.70;;;;;;221925;1263;22653;-54
2023/01/15 20:08:24;;;;;;;4.40;4.00;;;22.50;53.80;;;;;;222580;1259;24265;-50
2023/01/15 20:18:59;;;;;;;5.20;4.10;;;22.40;53.30;;;;;;221773;1265;22660;-53
2023/01/15 20:24:06;;;;;;;4.40;4.00;;;22.30;53.60;;;;;;221820;1263;23204;-53
2023/01/15 20:29:12;;;;;;;4.90;4.40;;;22.20;53.50;;;;;;221935;1262;22631;-53
2023/01/15 20:34:19;;;;;;;4.30;3.90;;;22.20;53.10;;;;;;221808;1255;24261;-52
2023/01/15 20:39:26;;;;;;;4.90;4.00;;;22.20;52.90;;;;;;222015;1263;24051;-52
2023/01/15 20:44:52;;;;;;;5.90;4.10;;;22.10;53.00;;;;;;222245;1262;22580;-58
2023/01/15 20:50:00;;;;;;;7.80;3.80;;;22.10;53.60;;;;;;221795;1267;22795;-56
2023/01/15 20:55:07;;;;;;;8.40;4.20;;;22.10;54.10;;;;;;222196;1270;23059;-53
2023/01/15 21:00:19;;;;;;;5.60;3.70;;;22.10;55.00;;;;;;221805;1270;22520;-51
2023/01/15 21:05:28;;;;;;;7.90;4.00;;;22.00;55.90;;;;;;222019;1263;22530;-56
2023/01/15 21:10:34;;;;;;;5.50;3.70;;;21.90;56.00;;;;;;221832;1266;22545;-55
2023/01/15 21:22:41;;;;;;;6.30;3.90;;;21.80;56.10;;;;;;221510;1257;22776;-60
2023/01/15 21:27:47;;;;;;;6.50;4.30;;;21.70;56.50;;;;;;221699;1256;22760;-57
2023/01/15 21:32:55;;;;;;;5.90;3.90;;;21.70;56.20;;;;;;222179;1269;22538;-58
2023/01/15 21:37:59;;;;;;;3.50;3.20;;;21.60;56.20;;;;;;221760;1266;24314;-59
2023/01/15 21:48:28;;;;;;;6.00;3.80;;;21.60;55.90;;;;;;223300;1260;22536;-52
2023/01/15 21:53:32;;;;;;;4.60;3.80;;;21.90;55.90;;;;;;222087;1260;22650;-48
2023/01/15 21:58:37;;;;;;;6.40;3.60;;;22.30;54.90;;;;;;221990;1253;22561;-51
2023/01/15 22:03:41;;;;;;;4.30;3.50;;;22.50;54.50;;;;;;221893;1258;25352;-51
2023/01/15 22:08:45;;;;;;;10.30;4.00;;;22.60;54.30;;;;;;222045;1251;22682;-53
2023/01/15 22:13:51;;;;;;;7.30;3.70;;;22.80;57.60;;;;;;221945;1263;22630;-51
2023/01/15 22:18:58;;;;;;;12.70;3.50;;;22.90;57.20;;;;;;222234;1262;22553;-49
2023/01/15 22:24:04;;;;;;;6.90;3.80;;;22.90;57.20;;;;;;222152;1260;22548;-47
2023/01/15 22:29:11;;;;;;;6.10;3.50;;;22.90;57.20;;;;;;221786;1257;22684;-53
2023/01/15 22:34:16;;;;;;;7.00;3.30;;;23.00;57.20;;;;;;221837;1252;24219;-50
2023/01/15 22:39:21;;;;;;;5.40;2.80;;;22.90;57.10;;;;;;221950;1250;25432;-51
2023/01/15 22:44:26;;;;;;;5.10;3.00;;;23.00;57.20;;;;;;221868;1260;22692;-51
2023/01/15 22:49:30;;;;;;;5.40;3.30;;;23.10;56.70;;;;;;222093;1257;24280;-52
2023/01/15 22:54:35;;;;;;;3.30;3.00;;;23.10;56.40;;;;;;222043;1254;24228;-52
2023/01/15 22:59:39;;;;;;;4.20;3.10;;;23.10;56.20;;;;;;222498;1264;22773;-52
2023/01/15 23:05:29;;;;;;;3.60;3.20;;;23.30;56.00;;;;;;222042;1256;26635;-53
2023/01/15 23:10:33;;;;;;;7.30;2.80;;;23.30;55.60;;;;;;222113;1263;25462;-55
2023/01/15 23:15:38;;;;;;;3.00;2.70;;;23.60;54.80;;;;;;221691;1254;22609;-55
2023/01/15 23:20:42;;;;;;;4.70;3.20;;;23.60;54.70;;;;;;224330;1264;22643;-53
2023/01/15 23:25:46;;;;;;;3.40;3.10;;;23.50;55.10;;;;;;221706;1260;22527;-54
2023/01/15 23:30:50;;;;;;;3.10;2.50;;;23.40;55.40;;;;;;221654;1257;22539;-55
2023/01/15 23:35:54;;;;;;;3.50;2.30;;;23.30;55.20;;;;;;222026;1247;22633;-54
2023/01/15 23:40:58;;;;;;;2.90;2.60;;;23.20;55.30;;;;;;222847;1265;22719;-53
2023/01/15 23:51:28;;;;;;;5.10;2.90;;;23.00;55.50;;;;;;223311;1263;23922;-55
2023/01/15 23:56:32;;;;;;;7.90;2.50;;;23.00;55.50;;;;;;221955;1259;22617;-54
